Time;durP1;ratioP1;P1;durP2;ratioP2;P2;SDS_P1;SDS_P2;PMS_P1;PMS_P2;Temp;Humidity;BMP_temperature;BMP_pressure;BME280_temperature;BME280_humidity;BME280_pressure;Samples;Min_cycle;Max_cycle;Signal;HPM_P1;HPM_P2
2023/01/04 00:00:45;;;;;;;;;70.67;56.00;;;;;6.28;74.92;102016.56;146636;569;45010;-69
2023/01/04 00:03:42;;;;;;;;;72.67;56.00;;;;;6.20;75.17;102013.31;146634;589;45915;-68
2023/01/04 00:06:59;;;;;;;;;;;;;;;;;;;;;
2023/01/04 00:10:01;;;;;;;;;51.00;41.00;;;;;4.73;75.02;101773.63;146634;574;46913;-69
2023/01/04 00:13:05;;;;;;;;;46.50;35.00;;;;;6.03;75.70;102008.31;146637;581;45020;-70
2023/01/04 00:16:01;;;;;;;;;35.00;32.25;;;;;6.05;75.80;102014.50;146634;573;45016;-70
2023/01/04 00:19:10;;;;;;;;;34.00;31.00;;;;;6.06;75.38;102015.41;146637;576;45010;-71
2023/01/04 00:22:17;;;;;;;;;40.25;32.00;;;;;6.07;74.51;102018.09;146635;583;45034;-71
2023/01/04 00:25:23;;;;;;;;;35.50;28.50;;;;;6.05;74.92;102017.09;146636;719;45020;-71
2023/01/04 00:28:30;;;;;;;;;27.25;24.75;;;;;5.98;75.89;102006.97;146635;573;45014;-71
2023/01/04 00:31:26;;;;;;;;;29.00;25.00;;;;;5.94;76.34;102013.53;146639;595;45010;-70
2023/01/04 00:34:22;;;;;;;;;23.25;23.25;;;;;5.92;77.43;102009.91;146632;571;46016;-71
2023/01/04 00:37:26;;;;;;;;;26.75;24.50;;;;;5.94;76.96;102013.53;146637;652;45020;-70
2023/01/04 00:40:28;;;;;;;;;27.00;23.00;;;;;5.98;77.14;102009.56;146634;569;46021;-72
2023/01/04 00:43:31;;;;;;;;;26.75;23.25;;;;;5.99;76.46;102007.13;146638;577;45010;-69
2023/01/04 00:46:24;;;;;;;;;30.25;26.25;;;;;6.01;75.97;102012.41;146634;563;45016;-70
2023/01/04 00:49:19;;;;;;;;;26.75;24.75;;;;;6.00;76.30;102008.03;146636;597;45020;-69
2023/01/04 00:52:16;;;;;;;;;26.50;24.00;;;;;5.97;76.41;102003.50;146628;578;46016;-68
2023/01/04 00:55:14;;;;;;;;;24.50;19.00;;;;;5.94;76.64;102004.91;146622;583;46010;-69
2023/01/04 00:58:10;;;;;;;;;22.50;17.75;;;;;5.89;77.74;101999.31;146619;630;46017;-69
2023/01/04 01:01:21;;;;;;;;;20.75;17.25;;;;;5.84;77.40;102000.56;146622;587;46020;-69
2023/01/04 01:04:26;;;;;;;;;22.25;19.75;;;;;5.84;77.84;102000.56;146616;637;46012;-67
2023/01/04 01:07:34;;;;;;;;;14.50;14.25;;;;;4.35;77.28;101729.03;146622;634;46011;-68
2023/01/04 01:10:27;;;;;;;;;17.00;15.50;;;;;5.92;77.84;102001.25;146619;565;46016;-66
2023/01/04 01:13:41;;;;;;;;;20.00;16.00;;;;;5.93;77.60;102001.44;146621;585;46028;-66
2023/01/04 01:16:42;;;;;;;;;19.25;16.75;;;;;5.92;77.35;102002.19;146618;642;46034;-68
2023/01/04 01:19:39;;;;;;;;;17.75;17.00;;;;;5.98;77.47;102007.91;146615;602;46020;-67
2023/01/04 01:22:41;;;;;;;;;20.50;15.50;;;;;6.01;77.35;102009.81;146618;735;46012;-66
2023/01/04 01:25:37;;;;;;;;;19.25;15.75;;;;;6.05;77.37;102016.19;146623;597;46010;-67
2023/01/04 01:28:48;;;;;;;;;18.50;15.00;;;;;4.55;76.76;101746.28;146616;588;46016;-66
2023/01/04 01:31:56;;;;;;;;;16.50;14.25;;;;;6.02;77.06;101998.78;146620;598;46020;-67
2023/01/04 01:34:55;;;;;;;;;13.00;10.75;;;;;6.01;77.49;102000.47;146618;680;46037;-69
2023/01/04 01:38:01;;;;;;;;;14.00;11.50;;;;;5.98;77.52;102000.19;146619;631;46020;-68
2023/01/04 01:40:56;;;;;;;;;16.50;15.50;;;;;5.97;76.65;101995.78;146617;596;46016;-68
2023/01/04 01:44:43;;;;;;;;;24.75;19.50;;;;;4.46;76.53;101714.63;146620;603;46029;-66
2023/01/04 01:47:52;;;;;;;;;19.75;18.00;;;;;5.99;76.12;101989.13;146617;589;46016;-67
2023/01/04 01:51:05;;;;;;;;;29.25;25.25;;;;;6.00;75.52;101992.59;146624;606;45021;-66
2023/01/04 01:54:25;;;;;;;;;;;;;;;;;;;;;
2023/01/04 01:57:51;;;;;;;;;;;;;;;;;;;;;
2023/01/04 02:00:44;;;;;;;;;46.25;38.25;;;;;6.06;75.19;102002.53;146611;596;46012;-67
2023/01/04 02:03:48;;;;;;;;;44.50;34.25;;;;;6.00;75.47;101993.47;146612;592;46028;-68
2023/01/04 02:06:56;;;;;;;;;37.00;32.00;;;;;6.00;75.44;102001.22;146610;648;46012;-68
2023/01/04 02:09:53;;;;;;;;;25.25;21.25;;;;;5.99;75.51;101993.34;146614;565;46010;-69
2023/01/04 02:12:55;;;;;;;;;22.50;16.00;;;;;5.94;75.33;101992.94;146609;585;46016;-69
2023/01/04 02:16:34;;;;;;;;;18.50;15.75;;;;;2.97;74.06;101485.41;146613;628;46020;-68
2023/01/04 02:20:26;;;;;;;;;19.75;17.00;;;;;5.78;74.26;101990.63;146612;618;46013;-69
2023/01/04 02:23:59;;;;;;;;;18.75;17.25;;;;;3.04;74.29;101504.81;146613;591;46010;-69
2023/01/04 02:27:29;;;;;;;;;19.50;17.50;;;;;5.77;74.25;101987.91;146612;622;45017;-69
2023/01/04 02:31:09;;;;;;;;;;;;;;;;;;;;;
2023/01/04 02:34:41;;;;;;;;;18.00;14.50;;;;;5.64;73.96;101977.25;146610;622;46015;-70
2023/01/04 02:38:16;;;;;;;;;13.50;13.00;;;;;5.60;73.95;101977.75;146613;602;46020;-69
2023/01/04 02:41:38;;;;;;;;;17.75;16.50;;;;;5.54;74.34;101989.31;146610;567;46013;-68
2023/01/04 02:44:56;;;;;;;;;21.00;19.25;;;;;5.50;75.01;101988.88;146613;574;46020;-68
2023/01/04 02:51:30;;;;;;;;;33.50;30.25;;;;;5.43;75.18;101982.25;146612;588;46021;-69
2023/01/04 02:54:31;;;;;;;;;29.00;25.75;;;;;5.43;75.13;101981.38;146624;590;46012;-67
2023/01/04 02:57:52;;;;;;;;;29.50;26.25;;;;;2.21;74.71;101421.13;146635;653;45010;-67
2023/01/04 03:09:19;;;;;;;;;36.25;25.50;;;;;2.58;75.37;101519.28;146632;619;46012;-70
2023/01/04 03:12:32;;;;;;;;;36.00;27.25;;;;;5.21;77.09;101979.37;146634;599;45021;-69
2023/01/04 03:15:39;;;;;;;;;36.25;29.00;;;;;5.18;76.88;101980.78;146633;627;45016;-65
2023/01/04 03:18:41;;;;;;;;;30.00;29.25;;;;;5.16;76.89;101980.62;146631;567;45021;-66
2023/01/04 03:21:47;;;;;;;;;32.50;28.75;;;;;5.15;77.30;101978.81;146632;630;46917;-67
2023/01/04 03:35:27;;;;;;;;;22.75;19.50;;;;;5.28;77.52;101991.12;146633;607;45017;-67
2023/01/04 03:49:04;;;;;;;;;20.50;17.75;;;;;5.25;76.47;101994.31;146633;621;45014;-66
2023/01/04 03:52:06;;;;;;;;;20.25;17.75;;;;;5.22;77.26;101994.03;146632;621;45012;-67
2023/01/04 03:55:05;;;;;;;;;18.00;15.25;;;;;5.22;77.54;101994.03;146609;565;46016;-66
2023/01/04 03:58:03;;;;;;;;;22.00;19.50;;;;;5.19;78.48;101996.31;146613;609;46010;-65
2023/01/04 04:01:02;;;;;;;;;22.00;18.00;;;;;5.19;77.87;102004.03;146609;618;46014;-66
2023/01/04 04:10:44;;;;;;;;;24.00;18.50;;;;;5.21;77.79;102015.38;146614;572;45022;-66
2023/01/04 04:13:42;;;;;;;;;23.00;20.50;;;;;5.22;78.18;102011.16;146611;565;46016;-66
2023/01/04 04:16:44;;;;;;;;;19.75;18.25;;;;;5.24;77.76;102007.97;146614;586;46010;-66
2023/01/04 04:20:02;;;;;;;;;15.75;15.25;;;;;5.21;76.85;102006.78;146612;570;47014;-69
2023/01/04 04:23:17;;;;;;;;;14.25;12.25;;;;;5.19;77.56;102013.44;146607;631;46010;-67
2023/01/04 04:26:10;;;;;;;;;14.25;14.00;;;;;5.16;77.14;102013.16;146611;644;46017;-70
2023/01/04 04:29:06;;;;;;;;;15.25;13.50;;;;;5.15;77.65;102011.34;146611;648;46020;-68
2023/01/04 04:32:00;;;;;;;;;20.25;16.00;;;;;5.15;77.89;102016.50;146610;592;46032;-69
2023/01/04 04:35:09;;;;;;;;;18.25;17.25;;;;;5.20;77.57;102034.16;146613;633;46012;-68
2023/01/04 04:38:04;;;;;;;;;20.25;17.75;;;;;5.21;78.18;102020.53;146609;599;46012;-67
2023/01/04 04:44:40;;;;;;;;;21.25;17.00;;;;;5.15;77.76;102011.34;146609;586;46016;-66
2023/01/04 04:47:35;;;;;;;;;15.75;15.75;;;;;5.15;77.82;102016.50;146611;583;46020;-67
2023/01/04 04:50:37;;;;;;;;;17.75;14.50;;;;;5.14;77.95;102018.16;146610;607;46012;-67
2023/01/04 04:53:31;;;;;;;;;16.50;15.00;;;;;5.16;77.41;102026.00;146603;591;47031;-66
2023/01/04 04:56:25;;;;;;;;;25.25;20.50;;;;;5.14;78.00;102025.88;146608;571;46013;-67
2023/01/04 04:59:22;;;;;;;;;17.25;17.25;;;;;5.10;78.20;102024.66;146613;571;46033;-69
2023/01/04 05:02:16;;;;;;;;;28.50;23.50;;;;;5.07;78.43;102026.94;146608;714;46015;-69
2023/01/04 05:05:09;;;;;;;;;24.75;21.50;;;;;5.07;78.48;102032.06;146613;620;46010;-68
2023/01/04 05:08:03;;;;;;;;;19.00;14.25;;;;;5.03;78.97;102032.56;146609;632;46016;-68
2023/01/04 05:11:14;;;;;;;;;21.00;17.25;;;;;5.02;78.27;102029.87;146611;615;47010;-68
2023/01/04 05:14:12;;;;;;;;;18.75;17.50;;;;;4.94;78.78;102015.38;146611;632;46016;-68
2023/01/04 05:17:06;;;;;;;;;21.50;18.25;;;;;5.01;78.35;102031.50;146612;584;46021;-68
2023/01/04 05:20:05;;;;;;;;;18.75;15.75;;;;;5.01;78.26;102035.75;146608;628;46012;-67
2023/01/04 05:23:00;;;;;;;;;21.50;16.50;;;;;5.01;78.76;102044.34;146602;585;46916;-67
2023/01/04 05:26:00;;;;;;;;;21.75;18.25;;;;;5.01;78.50;102041.78;146610;587;46016;-67
2023/01/04 05:28:58;;;;;;;;;19.75;18.50;;;;;5.02;79.42;102046.19;146615;626;46010;-67
2023/01/04 05:31:51;;;;;;;;;19.00;17.00;;;;;5.01;79.61;102044.34;146612;570;46015;-68
2023/01/04 05:34:45;;;;;;;;;21.25;16.50;;;;;5.01;79.48;102046.91;146612;639;46010;-67
2023/01/04 05:37:39;;;;;;;;;24.50;18.25;;;;;5.03;79.98;102052.22;146608;633;46014;-68
2023/01/04 05:40:49;;;;;;;;;;;;;;;;;;;;;
2023/01/04 05:43:42;;;;;;;;;27.75;21.25;;;;;5.10;80.19;102052.03;146610;570;46018;-70
2023/01/04 05:46:38;;;;;;;;;24.25;18.50;;;;;5.12;80.03;102049.63;146614;622;46020;-69
2023/01/04 05:49:41;;;;;;;;;18.00;18.00;;;;;5.11;79.63;102053.87;146610;588;46035;-68
2023/01/04 05:52:53;;;;;;;;;29.00;16.50;;;;;5.10;80.05;102045.22;146608;595;46010;-67
2023/01/04 05:55:47;;;;;;;;;19.25;15.25;;;;;5.07;79.84;102039.78;146610;582;47017;-67
2023/01/04 05:58:40;;;;;;;;;21.75;14.00;;;;;5.19;80.01;102049.44;146615;635;46010;-68
2023/01/04 06:01:35;;;;;;;;;60.00;41.50;;;;;5.22;79.78;102052.28;146607;603;46017;-70
2023/01/04 06:04:38;;;;;;;;;59.00;42.00;;;;;5.28;79.63;102055.44;146613;637;46010;-70
2023/01/04 06:07:32;;;;;;;;;78.00;54.75;;;;;5.30;79.45;102059.06;146606;573;46916;-69
2023/01/04 06:10:27;;;;;;;;;69.75;49.25;;;;;5.38;79.12;102062.34;146613;715;46010;-70
2023/01/04 06:13:19;;;;;;;;;122.33;92.00;;;;;5.47;79.29;102068.34;146612;637;46016;-70
2023/01/04 06:16:23;;;;;;;;;70.75;51.25;;;;;5.57;79.47;102065.84;146617;570;46020;-69
2023/01/04 06:19:18;;;;;;;;;53.75;40.25;;;;;5.65;78.71;102070.03;146611;577;46016;-69
2023/01/04 06:22:21;;;;;;;;;45.75;38.25;;;;;5.71;78.18;102074.88;146607;618;46020;-69
2023/01/04 06:25:22;;;;;;;;;61.50;47.00;;;;;5.78;78.29;102077.22;146610;569;46017;-69
2023/01/04 06:28:22;;;;;;;;;68.00;51.25;;;;;5.82;78.00;102081.88;146609;610;46916;-69
2023/01/04 06:31:15;;;;;;;;;93.33;73.00;;;;;5.86;77.72;102086.56;146612;644;46017;-68
2023/01/04 06:34:10;;;;;;;;;109.67;89.67;;;;;5.89;77.33;102083.38;146620;567;46021;-68
2023/01/04 06:37:06;;;;;;;;;101.00;82.00;;;;;5.92;77.03;102086.19;146617;682;46016;-70
2023/01/04 06:40:06;;;;;;;;;69.00;53.00;;;;;5.95;77.75;102091.66;146618;612;46021;-71
2023/01/04 06:43:05;;;;;;;;;65.50;49.75;;;;;6.01;78.00;102092.22;146611;585;46016;-72
2023/01/04 06:46:09;;;;;;;;;73.25;54.50;;;;;6.39;80.38;102089.66;146613;648;46021;-69
2023/01/04 06:49:06;;;;;;;;;60.50;47.00;;;;;6.93;79.03;102098.78;146609;565;46016;-70
2023/01/04 06:52:03;;;;;;;;;51.50;40.50;;;;;7.32;76.67;102095.28;146608;668;46020;-71
2023/01/04 06:55:17;;;;;;;;;50.75;41.50;;;;;7.83;76.37;102099.59;146617;636;46016;-70
2023/01/04 06:58:20;;;;;;;;;56.75;42.00;;;;;8.48;74.62;102098.09;146614;630;46916;-67
2023/01/04 07:01:35;;;;;;;;;;;;;;;;;;;;;
2023/01/04 07:04:35;;;;;;;;;57.50;44.00;;;;;9.64;71.18;102094.37;146617;579;46022;-69
2023/01/04 07:07:36;;;;;;;;;56.25;43.75;;;;;10.28;70.33;102093.19;146618;594;46017;-68
2023/01/04 07:10:29;;;;;;;;;65.25;50.50;;;;;10.93;67.71;102093.56;146622;599;46020;-70
2023/01/04 07:13:28;;;;;;;;;63.25;47.50;;;;;11.61;65.27;102085.31;146616;593;46014;-69
2023/01/04 07:16:31;;;;;;;;;63.25;47.75;;;;;12.21;63.66;102085.06;146619;634;46021;-69
2023/01/04 07:19:41;;;;;;;;;60.75;48.00;;;;;12.79;63.13;102087.97;146615;599;46016;-69
2023/01/04 07:22:39;;;;;;;;;67.00;50.50;;;;;12.30;59.70;101908.84;146614;576;46012;-70
2023/01/04 07:25:31;;;;;;;;;92.33;71.67;;;;;13.88;58.13;102089.53;146618;591;46012;-69
2023/01/04 07:31:54;;;;;;;;;60.25;46.25;;;;;14.41;56.94;102096.97;146616;611;46013;-69
2023/01/04 07:34:50;;;;;;;;;61.50;47.00;;;;;14.64;56.89;102085.25;146622;565;46020;-70
2023/01/04 07:37:50;;;;;;;;;61.50;44.75;;;;;15.00;54.96;102084.69;146617;590;46016;-73
2023/01/04 07:40:42;;;;;;;;;59.50;46.50;;;;;15.20;54.45;102082.25;146621;566;46010;-70
2023/01/04 07:43:36;;;;;;;;;58.75;45.00;;;;;15.42;53.64;102089.53;146617;607;46915;-70
2023/01/04 07:46:43;;;;;;;;;59.00;45.00;;;;;15.59;52.99;102082.59;146619;691;47010;-69
2023/01/04 07:49:42;;;;;;;;;53.25;43.75;;;;;15.66;52.50;102085.59;146616;621;46016;-69
2023/01/04 07:52:50;;;;;;;;;55.00;43.25;;;;;15.55;51.47;102093.72;146610;624;46020;-71
2023/01/04 07:55:48;;;;;;;;;56.25;44.25;;;;;15.35;51.79;102101.37;146612;593;46016;-71
2023/01/04 07:58:55;;;;;;;;;51.25;40.75;;;;;15.09;52.15;102101.69;146605;589;47012;-71
2023/01/04 08:01:56;;;;;;;;;58.75;46.00;;;;;14.84;53.81;102102.97;146608;582;46017;-71
2023/01/04 08:04:58;;;;;;;;;55.50;44.00;;;;;14.68;54.56;102106.41;146614;569;46010;-71
2023/01/04 08:08:04;;;;;;;;;57.00;44.25;;;;;14.47;55.26;102099.94;146609;647;46017;-68
2023/01/04 08:11:13;;;;;;;;;56.50;44.25;;;;;14.30;56.18;102105.09;146611;589;46020;-67
2023/01/04 08:14:16;;;;;;;;;56.75;45.00;;;;;14.25;56.22;102108.25;146608;569;46016;-71
2023/01/04 08:17:08;;;;;;;;;60.25;45.75;;;;;14.22;55.93;102111.56;146613;684;46021;-70
2023/01/04 08:20:01;;;;;;;;;57.00;44.75;;;;;14.14;56.00;102104.97;146609;566;46016;-68
2023/01/04 08:22:53;;;;;;;;;53.50;43.00;;;;;14.07;56.25;102101.13;146609;635;46030;-69
2023/01/04 08:25:46;;;;;;;;;56.75;44.75;;;;;14.00;55.91;102104.19;146612;617;46014;-69
2023/01/04 08:28:45;;;;;;;;;57.50;44.50;;;;;13.92;58.05;102109.75;146613;580;46020;-74
2023/01/04 08:31:54;;;;;;;;;26.75;18.75;;;;;11.48;62.68;101668.00;146611;630;46916;-70
2023/01/04 08:35:07;;;;;;;;;50.50;40.25;;;;;14.05;59.50;102100.16;146612;588;46020;-70
2023/01/04 08:38:06;;;;;;;;;54.00;41.00;;;;;14.04;58.72;102100.94;146610;657;46017;-70
2023/01/04 08:40:58;;;;;;;;;51.25;41.00;;;;;14.04;59.33;102100.94;146611;629;46010;-70
2023/01/04 08:44:12;;;;;;;;;49.00;38.00;;;;;14.14;59.89;102104.09;146608;638;46916;-69
2023/01/04 08:47:06;;;;;;;;;50.00;38.00;;;;;14.29;57.93;102108.50;146613;626;46010;-72
2023/01/04 08:50:00;;;;;;;;;50.25;39.25;;;;;14.23;58.33;102091.59;146602;566;47916;-72
2023/01/04 08:52:57;;;;;;;;;47.00;36.50;;;;;14.27;58.18;102097.09;146610;579;46020;-71
2023/01/04 08:56:10;;;;;;;;;;;;;;;;;;;;;
2023/01/04 08:59:02;;;;;;;;;47.00;36.25;;;;;14.07;58.30;102089.78;146622;575;46020;-69
2023/01/04 09:01:59;;;;;;;;;45.75;38.75;;;;;14.09;58.96;102090.78;146617;619;46013;-70
2023/01/04 09:05:01;;;;;;;;;;;;;;;;;;;;;
2023/01/04 09:08:02;;;;;;;;;48.75;38.75;;;;;14.19;58.08;102080.09;146612;578;46015;-70
2023/01/04 09:10:56;;;;;;;;;55.25;42.75;;;;;13.20;58.16;101902.16;146621;571;46010;-71
2023/01/04 09:14:07;;;;;;;;;56.50;44.00;;;;;14.28;59.22;102080.63;146617;609;46916;-69
2023/01/04 09:17:03;;;;;;;;;55.00;43.50;;;;;14.37;58.71;102074.13;146619;603;46012;-71
2023/01/04 09:20:26;;;;;;;;;49.75;38.50;;;;;12.51;60.67;101713.28;146616;583;46916;-71
2023/01/04 09:23:23;;;;;;;;;46.25;38.75;;;;;14.70;55.59;102069.94;146616;592;46011;-71
2023/01/04 09:26:21;;;;;;;;;51.25;40.50;;;;;14.73;55.95;102070.13;146616;598;46016;-72
2023/01/04 09:29:35;;;;;;;;;48.00;39.75;;;;;14.66;57.92;102074.09;146618;644;47010;-71
2023/01/04 09:32:38;;;;;;;;;51.75;41.75;;;;;14.73;57.23;102076.22;146620;571;46012;-69
2023/01/04 09:35:34;;;;;;;;;52.00;41.00;;;;;14.77;56.67;102079.94;146621;675;46012;-70
2023/01/04 09:38:40;;;;;;;;;39.00;33.50;;;;;14.78;54.63;102061.72;146617;586;46017;-69
2023/01/04 09:42:06;;;;;;;;;44.75;34.25;;;;;12.17;57.71;101609.84;146622;634;46010;-69
2023/01/04 09:45:21;;;;;;;;;41.75;35.50;;;;;14.81;58.99;102057.50;146616;591;46013;-69
2023/01/04 09:48:31;;;;;;;;;46.50;35.75;;;;;14.94;57.65;102059.97;146620;693;46010;-70
2023/01/04 09:51:33;;;;;;;;;47.00;37.50;;;;;15.06;56.93;102052.78;146617;611;46016;-69
2023/01/04 09:54:59;;;;;;;;;51.50;42.00;;;;;15.22;58.27;102052.78;146607;675;46021;-69
2023/01/04 09:58:09;;;;;;;;;45.25;36.50;;;;;15.35;55.81;102046.50;146610;662;46016;-69
2023/01/04 10:01:31;;;;;;;;;38.25;32.00;;;;;14.56;56.81;101920.41;146612;629;46021;-69
2023/01/04 10:04:39;;;;;;;;;43.75;36.25;;;;;15.19;54.71;102042.19;146605;732;46016;-69
2023/01/04 10:07:45;;;;;;;;;48.50;37.50;;;;;15.16;54.61;102030.66;146613;573;46011;-70
2023/01/04 10:11:05;;;;;;;;;49.25;37.75;;;;;15.22;56.30;102036.22;146610;717;46033;-70
2023/01/04 10:14:59;;;;;;;;;46.25;36.00;;;;;12.74;56.42;101571.47;146610;577;47010;-70
2023/01/04 10:18:39;;;;;;;;;45.00;36.00;;;;;15.32;56.69;102021.94;146610;566;46016;-69
2023/01/04 10:22:34;;;;;;;;;43.75;35.75;;;;;15.43;55.03;102003.37;146613;578;46010;-71
2023/01/04 10:25:59;;;;;;;;;47.00;36.75;;;;;13.36;56.53;101600.09;146606;605;46016;-71
2023/01/04 10:29:38;;;;;;;;;48.50;39.00;;;;;14.27;56.72;101738.78;146607;598;46020;-69
2023/01/04 10:33:07;;;;;;;;;50.25;39.00;;;;;14.67;55.41;101780.91;146607;566;46016;-70
2023/01/04 10:36:07;;;;;;;;;43.25;36.75;;;;;16.06;53.95;101990.88;146611;619;46025;-70
2023/01/04 10:39:16;;;;;;;;;44.25;37.50;;;;;16.21;53.42;101979.37;146608;566;46014;-70
2023/01/04 10:42:34;;;;;;;;;45.75;37.00;;;;;16.29;53.67;101985.87;146612;618;47010;-70
2023/01/04 10:46:13;;;;;;;;;44.50;38.25;;;;;16.36;52.51;101980.13;146609;749;46017;-71
2023/01/04 10:49:15;;;;;;;;;48.00;36.75;;;;;16.35;52.90;101978.31;146613;627;46020;-71
2023/01/04 10:52:54;;;;;;;;;43.50;35.50;;;;;16.36;52.74;101978.41;146609;651;46028;-72
2023/01/04 10:56:23;;;;;;;;;49.00;41.00;;;;;16.43;54.05;101973.44;146613;596;46010;-73
2023/01/04 11:00:14;;;;;;;;;45.50;36.25;;;;;15.35;55.24;101759.03;146610;622;46914;-73
2023/01/04 11:03:53;;;;;;;;;48.00;38.50;;;;;15.59;54.43;101761.03;146606;580;46010;-73
2023/01/04 11:07:20;;;;;;;;;42.25;31.25;;;;;16.91;53.21;101966.09;146609;567;46016;-71
2023/01/04 11:10:51;;;;;;;;;42.25;34.75;;;;;16.99;53.27;101968.25;146613;597;46020;-73
2023/01/04 11:13:44;;;;;;;;;42.50;35.00;;;;;17.05;52.25;101960.66;146607;579;46919;-70
2023/01/04 11:16:50;;;;;;;;;44.25;36.75;;;;;17.19;49.79;101958.63;146612;608;46020;-70
2023/01/04 11:19:46;;;;;;;;;42.25;33.50;;;;;17.23;49.88;101962.31;146610;597;46012;-69
2023/01/04 11:22:57;;;;;;;;;44.25;36.00;;;;;17.25;53.00;101961.50;146607;625;47021;-70
2023/01/04 11:26:30;;;;;;;;;43.75;35.75;;;;;15.11;51.65;101555.00;146606;569;46016;-69
2023/01/04 11:30:08;;;;;;;;;44.50;36.50;;;;;15.19;53.28;101545.78;146610;631;47012;-69
2023/01/04 11:33:36;;;;;;;;;49.75;40.75;;;;;15.28;52.35;101526.13;146609;704;47012;-69
2023/01/04 11:36:50;;;;;;;;;44.75;36.50;;;;;17.79;51.51;101948.13;146606;619;46010;-69
2023/01/04 11:39:45;;;;;;;;;44.50;36.75;;;;;17.90;50.40;101938.03;146610;596;46012;-70
2023/01/04 11:42:38;;;;;;;;;44.00;36.25;;;;;18.02;48.30;101941.16;146611;564;46020;-72
2023/01/04 11:45:46;;;;;;;;;;;;;;;;;;;;;
2023/01/04 11:48:48;;;;;;;;;43.75;36.50;;;;;18.25;50.05;101934.19;146613;563;46020;-70
2023/01/04 11:51:44;;;;;;;;;43.50;34.50;;;;;18.36;47.99;101932.00;146610;596;46016;-70
2023/01/04 11:54:40;;;;;;;;;40.25;33.25;;;;;18.29;47.58;101919.47;146637;608;45020;-70
2023/01/04 11:57:34;;;;;;;;;45.75;38.25;;;;;18.39;47.47;101922.50;146636;580;45016;-70
2023/01/04 12:00:30;;;;;;;;;50.50;39.50;;;;;18.54;47.52;101934.44;146636;590;45020;-70
2023/01/04 12:03:36;;;;;;;;;39.25;32.00;;;;;18.61;48.47;101936.47;146632;563;45016;-70
2023/01/04 12:06:56;;;;;;;;;29.50;27.75;;;;;18.69;49.42;101922.78;146634;645;46010;-68
2023/01/04 12:09:55;;;;;;;;;29.75;27.50;;;;;18.67;46.00;101923.56;146632;593;45016;-70
2023/01/04 12:12:58;;;;;;;;;28.25;25.25;;;;;18.69;46.16;101927.12;146634;599;45033;-69
2023/01/04 12:16:45;;;;;;;;;30.25;27.50;;;;;16.31;47.44;101510.50;146632;628;46014;-69
2023/01/04 12:19:40;;;;;;;;;26.75;23.25;;;;;18.73;44.88;101921.19;146635;591;45020;-68
2023/01/04 12:22:53;;;;;;;;;22.25;19.75;;;;;18.84;48.76;101918.94;146635;564;45016;-70
2023/01/04 12:26:00;;;;;;;;;22.50;21.25;;;;;18.96;47.16;101922.00;146634;577;45010;-70
2023/01/04 12:28:57;;;;;;;;;17.00;17.00;;;;;19.10;44.84;101923.41;146634;591;45016;-70
2023/01/04 12:32:16;;;;;;;;;18.00;18.00;;;;;19.35;44.65;101924.28;146635;612;45010;-70
2023/01/04 12:36:02;;;;;;;;;16.00;12.75;;;;;17.38;49.33;101519.88;146633;606;45913;-70
2023/01/04 12:39:46;;;;;;;;;15.00;15.00;;;;;17.61;48.61;101519.81;146632;617;45010;-69
2023/01/04 12:42:39;;;;;;;;;16.50;16.00;;;;;20.03;42.55;101914.25;146635;564;45015;-70
2023/01/04 12:45:35;;;;;;;;;26.50;22.75;;;;;20.16;42.76;101908.53;146632;684;47020;-69
2023/01/04 12:52:09;;;;;;;;;18.25;18.25;;;;;20.06;40.80;101906.44;146631;572;45012;-71
2023/01/04 12:56:00;;;;;;;;;20.25;18.75;;;;;17.36;46.90;101482.25;146632;641;46012;-70
2023/01/04 12:59:29;;;;;;;;;14.25;13.50;;;;;19.48;44.79;101901.91;146635;575;46010;-70
2023/01/04 13:02:29;;;;;;;;;16.00;15.00;;;;;19.43;42.65;101912.25;146633;618;45012;-70
2023/01/04 13:05:55;;;;;;;;;29.50;26.25;;;;;16.64;45.22;101427.16;146630;576;46020;-69
2023/01/04 13:09:19;;;;;;;;;19.75;18.00;;;;;16.94;47.70;101498.16;146634;590;45026;-70
2023/01/04 13:12:56;;;;;;;;;21.75;19.00;;;;;16.93;48.69;101504.25;146635;597;45010;-70
2023/01/04 13:16:29;;;;;;;;;14.50;12.50;;;;;19.28;43.89;101911.72;146634;593;45016;-71
2023/01/04 13:19:28;;;;;;;;;16.25;15.00;;;;;19.29;44.11;101921.44;146632;564;45011;-71
2023/01/04 13:22:32;;;;;;;;;21.00;18.75;;;;;19.17;44.19;101916.62;146634;572;45012;-70
2023/01/04 13:25:27;;;;;;;;;26.50;24.25;;;;;19.04;45.63;101909.16;146638;585;45010;-70
2023/01/04 13:28:28;;;;;;;;;29.00;23.75;;;;;18.95;46.90;101914.97;146633;620;45916;-69
2023/01/04 13:31:21;;;;;;;;;30.75;27.00;;;;;18.88;45.77;101907.72;146633;570;45020;-70
2023/01/04 13:34:41;;;;;;;;;23.25;21.00;;;;;18.88;50.24;101908.63;146631;599;45012;-70
2023/01/04 13:37:53;;;;;;;;;20.50;20.25;;;;;19.04;46.67;101910.06;146633;579;45020;-70
2023/01/04 13:40:51;;;;;;;;;19.25;17.50;;;;;19.04;44.46;101911.78;146633;604;46012;-70
2023/01/04 13:44:24;;;;;;;;;19.00;17.75;;;;;16.65;49.66;101496.12;146632;571;45010;-70
2023/01/04 13:47:28;;;;;;;;;;;;;;;;;;;;;
2023/01/04 13:50:48;;;;;;;;;16.25;14.75;;;;;19.25;48.00;101919.50;146621;622;46023;-71
2023/01/04 13:53:40;;;;;;;;;21.75;18.00;;;;;19.27;45.83;101918.72;146612;573;46016;-68
2023/01/04 13:56:39;;;;;;;;;18.75;17.00;;;;;19.32;44.78;101927.69;146613;595;47010;-68
2023/01/04 13:59:37;;;;;;;;;17.50;17.50;;;;;19.17;43.77;101926.25;146609;567;47012;-69
2023/01/04 14:02:36;;;;;;;;;12.75;12.75;;;;;18.86;45.93;101920.78;146612;573;47010;-68
2023/01/04 14:05:31;;;;;;;;;20.25;17.50;;;;;18.71;47.24;101928.06;146611;575;46016;-69
2023/01/04 14:08:43;;;;;;;;;22.00;19.75;;;;;18.66;47.12;101932.25;146614;584;47010;-69
2023/01/04 14:12:05;;;;;;;;;11.50;11.00;;;;;18.47;47.52;101938.53;146610;581;46017;-69
2023/01/04 14:15:49;;;;;;;;;;;;;;;;;;;;;
2023/01/04 14:18:48;;;;;;;;;19.75;19.75;;;;;18.03;45.91;101927.19;146607;613;47013;-69
2023/01/04 14:21:53;;;;;;;;;32.75;27.50;;;;;17.91;46.69;101929.31;146614;598;46010;-69
2023/01/04 14:24:57;;;;;;;;;22.50;21.75;;;;;17.81;48.68;101937.66;146609;592;48012;-69
2023/01/04 14:28:04;;;;;;;;;23.00;21.50;;;;;17.70;47.56;101938.09;146615;623;46020;-68
2023/01/04 14:31:34;;;;;;;;;23.75;23.50;;;;;15.12;49.39;101525.44;146606;564;46016;-69
2023/01/04 14:34:27;;;;;;;;;26.00;24.75;;;;;17.31;48.89;101932.06;146612;595;47010;-68
2023/01/04 14:37:41;;;;;;;;;28.50;24.00;;;;;14.52;52.69;101491.34;146611;590;46016;-69
2023/01/04 14:40:44;;;;;;;;;22.50;21.25;;;;;16.98;51.54;101944.59;146614;575;47010;-68
2023/01/04 14:44:11;;;;;;;;;29.50;25.00;;;;;16.72;51.60;101940.75;146608;620;46017;-68
2023/01/04 14:47:17;;;;;;;;;24.00;22.50;;;;;16.44;51.49;101955.19;146605;569;46020;-68
2023/01/04 14:50:12;;;;;;;;;40.75;34.00;;;;;16.20;52.23;101952.31;146610;590;47012;-69
2023/01/04 14:53:25;;;;;;;;;46.75;35.50;;;;;13.33;53.83;101485.34;146608;630;47010;-69
2023/01/04 14:56:25;;;;;;;;;32.00;26.75;;;;;15.81;54.86;101954.78;146609;569;47012;-68
2023/01/04 14:59:22;;;;;;;;;43.00;33.75;;;;;15.68;54.51;101960.22;146612;572;46020;-69
2023/01/04 15:02:35;;;;;;;;;38.75;32.00;;;;;12.75;55.63;101464.88;146612;585;46016;-69
2023/01/04 15:05:30;;;;;;;;;53.75;42.50;;;;;15.32;56.18;101954.88;146615;677;46020;-69
2023/01/04 15:08:32;;;;;;;;;41.75;32.50;;;;;13.78;56.89;101723.12;146608;570;46918;-68
2023/01/04 15:11:28;;;;;;;;;39.75;33.50;;;;;14.87;57.20;101958.59;146617;574;46020;-67
2023/01/04 15:14:36;;;;;;;;;42.00;32.00;;;;;14.62;58.21;101959.88;146610;599;46016;-68
2023/01/04 15:17:36;;;;;;;;;80.33;72.00;;;;;14.36;58.49;101961.03;146611;601;47010;-69
2023/01/04 15:20:34;;;;;;;;;82.00;75.00;;;;;14.13;59.11;101959.75;146611;588;47012;-69